Time;durP1;ratioP1;P1;durP2;ratioP2;P2;SDS_P1;SDS_P2;PMS_P1;PMS_P2;Temp;Humidity;BMP_temperature;BMP_pressure;BME280_temperature;BME280_humidity;BME280_pressure;Samples;Min_cycle;Max_cycle;Signal;HPM_P1;HPM_P2
2023/04/22 00:00:49;;;;;;;5.05;3.15;;;;;;;;;;4987902;28;20018;-80
2023/04/22 00:03:15;;;;;;;4.78;3.00;;;;;;;;;;4991009;28;20061;-81
2023/04/22 00:05:40;;;;;;;5.70;3.30;;;;;;;;;;4987799;28;20109;-79
2023/04/22 00:08:06;;;;;;;3.35;2.95;;;;;;;;;;4990647;28;20030;-81
2023/04/22 00:10:32;;;;;;;4.82;3.38;;;;;;;;;;4970530;28;20089;-80
2023/04/22 00:12:57;;;;;;;4.30;3.17;;;;;;;;;;4966729;28;20019;-81
2023/04/22 00:15:24;;;;;;;11.65;3.28;;;;;;;;;;4985866;28;20220;-80
2023/04/22 00:17:50;;;;;;;8.57;3.60;;;;;;;;;;4993078;28;20095;-80
2023/04/22 00:20:16;;;;;;;11.65;3.78;;;;;;;;;;4970691;28;20062;-80
2023/04/22 00:22:41;;;;;;;7.90;3.17;;;;;;;;;;4997850;28;20026;-81
2023/04/22 00:25:07;;;;;;;4.88;2.83;;;;;;;;;;4994581;28;20057;-80
2023/04/22 00:27:32;;;;;;;3.90;2.97;;;;;;;;;;4962147;28;20034;-81
2023/04/22 00:29:58;;;;;;;5.80;3.22;;;;;;;;;;4994543;28;20034;-80
2023/04/22 00:32:23;;;;;;;5.40;2.78;;;;;;;;;;4989392;28;20030;-81
2023/04/22 00:34:49;;;;;;;4.85;3.03;;;;;;;;;;4985231;28;20153;-81
2023/04/22 00:37:15;;;;;;;8.30;3.33;;;;;;;;;;4993683;28;20022;-80
2023/04/22 00:39:40;;;;;;;5.13;3.20;;;;;;;;;;4985433;28;20042;-81
2023/04/22 00:42:06;;;;;;;6.53;3.50;;;;;;;;;;4974479;28;20089;-81
2023/04/22 00:44:32;;;;;;;4.63;2.85;;;;;;;;;;4984573;28;20073;-80
2023/04/22 00:46:59;;;;;;;5.45;3.15;;;;;;;;;;4995160;28;20026;-80
2023/04/22 00:49:26;;;;;;;5.20;3.50;;;;;;;;;;5004705;28;20011;-80
2023/04/22 00:51:52;;;;;;;12.18;3.35;;;;;;;;;;4993759;28;20022;-80
2023/04/22 00:54:18;;;;;;;4.80;2.60;;;;;;;;;;4999691;28;20027;-80
2023/04/22 00:56:44;;;;;;;4.65;2.97;;;;;;;;;;4975829;28;20054;-80
2023/04/22 00:59:09;;;;;;;4.72;3.00;;;;;;;;;;4991523;28;20022;-81
2023/04/22 01:01:35;;;;;;;7.95;2.92;;;;;;;;;;4974939;28;20458;-80
2023/04/22 01:04:02;;;;;;;6.43;3.08;;;;;;;;;;4985094;28;20754;-80
2023/04/22 01:06:31;;;;;;;4.57;3.08;;;;;;;;;;4973860;28;20031;-80
2023/04/22 01:08:56;;;;;;;5.35;3.88;;;;;;;;;;4971758;28;20057;-80
2023/04/22 01:11:23;;;;;;;6.28;4.30;;;;;;;;;;4986991;28;20038;-80
2023/04/22 01:13:48;;;;;;;5.10;3.42;;;;;;;;;;4990764;28;20033;-81
2023/04/22 01:16:13;;;;;;;5.45;4.05;;;;;;;;;;4970390;28;20015;-80
2023/04/22 01:18:39;;;;;;;4.93;3.63;;;;;;;;;;4969720;28;20042;-80
2023/04/22 01:21:05;;;;;;;5.60;4.18;;;;;;;;;;4987203;28;20037;-80
2023/04/22 01:23:31;;;;;;;5.43;3.40;;;;;;;;;;4988806;28;20019;-79
2023/04/22 01:25:56;;;;;;;4.90;3.42;;;;;;;;;;4991135;28;20033;-80
2023/04/22 01:28:22;;;;;;;8.05;3.80;;;;;;;;;;4990984;28;20034;-80
2023/04/22 01:30:48;;;;;;;6.15;3.65;;;;;;;;;;4985780;28;20018;-81
2023/04/22 01:33:14;;;;;;;6.88;4.18;;;;;;;;;;4986300;28;20018;-80
2023/04/22 01:35:40;;;;;;;5.72;3.90;;;;;;;;;;4980495;28;20078;-80
2023/04/22 01:38:07;;;;;;;5.28;3.50;;;;;;;;;;4991301;28;20014;-80
2023/04/22 01:40:33;;;;;;;6.35;3.85;;;;;;;;;;4995628;28;20030;-80
2023/04/22 01:42:59;;;;;;;10.05;3.70;;;;;;;;;;5004059;28;20054;-80
2023/04/22 01:45:24;;;;;;;7.15;4.25;;;;;;;;;;4988320;28;20027;-80
2023/04/22 01:47:50;;;;;;;6.45;3.47;;;;;;;;;;4990059;28;20031;-79
2023/04/22 01:50:15;;;;;;;5.95;3.53;;;;;;;;;;4971536;28;20372;-80
2023/04/22 01:52:41;;;;;;;5.90;3.33;;;;;;;;;;4987820;28;20030;-80
2023/04/22 01:55:07;;;;;;;6.55;3.35;;;;;;;;;;4981354;28;20660;-80
2023/04/22 01:57:32;;;;;;;4.95;3.35;;;;;;;;;;4979144;28;20029;-80
2023/04/22 01:59:58;;;;;;;5.20;3.40;;;;;;;;;;4987214;28;20026;-81
2023/04/22 02:02:23;;;;;;;6.90;3.60;;;;;;;;;;4976612;28;20022;-80
2023/04/22 02:04:48;;;;;;;4.65;3.25;;;;;;;;;;4990311;28;20019;-81
2023/04/22 02:07:14;;;;;;;4.75;3.30;;;;;;;;;;4985448;28;20086;-80
2023/04/22 02:09:39;;;;;;;4.70;3.22;;;;;;;;;;4973839;28;20371;-80
2023/04/22 02:12:05;;;;;;;3.95;3.55;;;;;;;;;;5002781;28;20018;-80
2023/04/22 02:14:30;;;;;;;6.68;3.97;;;;;;;;;;4968432;28;20517;-81
2023/04/22 02:16:55;;;;;;;7.82;4.03;;;;;;;;;;4980095;28;20024;-81
2023/04/22 02:19:21;;;;;;;7.68;3.42;;;;;;;;;;4998336;28;20113;-81
2023/04/22 02:21:46;;;;;;;5.05;3.63;;;;;;;;;;4967697;28;20027;-80
2023/04/22 02:24:11;;;;;;;4.43;3.50;;;;;;;;;;4969729;28;20031;-81
2023/04/22 02:26:37;;;;;;;6.45;3.63;;;;;;;;;;4978945;28;20018;-80
2023/04/22 02:29:02;;;;;;;4.88;3.35;;;;;;;;;;4970804;28;20031;-80
2023/04/22 02:31:27;;;;;;;5.57;3.83;;;;;;;;;;4965394;28;20069;-81
2023/04/22 02:33:54;;;;;;;6.35;3.33;;;;;;;;;;5018263;28;20061;-80
2023/04/22 02:36:19;;;;;;;5.78;3.85;;;;;;;;;;4983592;28;20031;-79
2023/04/22 02:38:44;;;;;;;6.47;3.85;;;;;;;;;;4983424;28;20089;-80
2023/04/22 02:41:10;;;;;;;7.22;3.67;;;;;;;;;;4993746;28;20057;-80
2023/04/22 02:43:35;;;;;;;8.18;4.20;;;;;;;;;;4985997;28;20018;-80
2023/04/22 02:46:01;;;;;;;6.93;3.70;;;;;;;;;;4975852;28;20538;-80
2023/04/22 02:48:26;;;;;;;7.43;4.30;;;;;;;;;;4968090;28;20023;-80
2023/04/22 02:50:51;;;;;;;6.43;4.47;;;;;;;;;;4983296;28;20089;-80
2023/04/22 02:53:17;;;;;;;8.07;4.43;;;;;;;;;;4965108;28;20876;-79
2023/04/22 02:55:42;;;;;;;6.97;4.30;;;;;;;;;;4963329;28;20015;-81
2023/04/22 02:58:07;;;;;;;7.88;4.22;;;;;;;;;;4979652;28;20023;-81
2023/04/22 03:00:33;;;;;;;9.20;4.35;;;;;;;;;;4976100;28;21302;-81
2023/04/22 03:02:59;;;;;;;6.88;4.25;;;;;;;;;;4978343;28;20174;-80
2023/04/22 03:05:24;;;;;;;9.02;3.85;;;;;;;;;;4988831;28;20087;-79
2023/04/22 03:07:50;;;;;;;6.22;4.15;;;;;;;;;;4985301;28;20034;-80
2023/04/22 03:10:15;;;;;;;5.30;3.78;;;;;;;;;;4962242;28;20109;-80
2023/04/22 03:12:40;;;;;;;7.32;4.07;;;;;;;;;;4981919;28;20038;-80
2023/04/22 03:15:06;;;;;;;7.00;3.88;;;;;;;;;;4951456;28;20394;-80
2023/04/22 03:17:32;;;;;;;6.85;4.05;;;;;;;;;;4981658;28;20030;-80
2023/04/22 03:19:57;;;;;;;6.10;3.80;;;;;;;;;;4982918;28;20022;-80
2023/04/22 03:22:22;;;;;;;7.20;4.32;;;;;;;;;;4963304;28;20034;-80
2023/04/22 03:24:48;;;;;;;7.25;4.10;;;;;;;;;;4988821;28;20022;-80
2023/04/22 03:27:13;;;;;;;6.95;4.32;;;;;;;;;;4980994;28;20030;-80
2023/04/22 03:29:38;;;;;;;8.27;4.75;;;;;;;;;;4981290;28;20027;-80
2023/04/22 03:32:04;;;;;;;8.98;3.97;;;;;;;;;;4988099;28;20031;-80
2023/04/22 03:34:29;;;;;;;8.82;4.60;;;;;;;;;;4960645;28;20537;-80
2023/04/22 03:36:55;;;;;;;7.38;4.22;;;;;;;;;;4976739;28;20448;-80
2023/04/22 03:39:21;;;;;;;6.95;4.05;;;;;;;;;;4987166;28;20137;-80
2023/04/22 03:41:46;;;;;;;5.63;4.20;;;;;;;;;;4993370;28;20057;-80
2023/04/22 03:44:12;;;;;;;5.85;4.03;;;;;;;;;;4986367;28;20402;-80
2023/04/22 03:46:37;;;;;;;8.30;4.72;;;;;;;;;;4976221;28;20042;-79
2023/04/22 03:49:02;;;;;;;6.25;4.55;;;;;;;;;;4990693;28;20042;-81
2023/04/22 03:51:28;;;;;;;6.80;5.10;;;;;;;;;;4982670;28;20054;-80
2023/04/22 03:53:53;;;;;;;8.68;4.88;;;;;;;;;;4976376;28;20101;-81
2023/04/22 03:56:19;;;;;;;8.43;5.07;;;;;;;;;;4961053;28;20061;-81
2023/04/22 03:58:44;;;;;;;9.63;5.10;;;;;;;;;;4988916;28;20033;-79
2023/04/22 04:01:10;;;;;;;9.68;5.13;;;;;;;;;;4960747;28;20461;-80
2023/04/22 04:03:35;;;;;;;10.15;4.82;;;;;;;;;;4953123;28;20039;-79
2023/04/22 04:06:01;;;;;;;8.30;4.93;;;;;;;;;;4985969;28;20069;-80
2023/04/22 04:08:26;;;;;;;8.55;4.63;;;;;;;;;;4945784;28;20122;-80
2023/04/22 04:10:52;;;;;;;11.20;5.80;;;;;;;;;;4992449;28;20026;-79
2023/04/22 04:13:17;;;;;;;10.63;5.20;;;;;;;;;;4985410;28;20030;-80
2023/04/22 04:15:42;;;;;;;8.23;4.75;;;;;;;;;;4964140;28;20030;-79
2023/04/22 04:18:08;;;;;;;9.65;5.18;;;;;;;;;;4974625;28;20023;-80
2023/04/22 04:20:33;;;;;;;7.47;4.80;;;;;;;;;;4972268;28;20077;-79
2023/04/22 04:22:59;;;;;;;8.40;4.85;;;;;;;;;;4958795;28;20025;-80
2023/04/22 04:25:24;;;;;;;9.25;4.78;;;;;;;;;;4963188;28;20022;-80
2023/04/22 04:27:50;;;;;;;11.15;5.13;;;;;;;;;;4967992;28;20134;-80
2023/04/22 04:30:16;;;;;;;9.43;5.40;;;;;;;;;;4984801;28;20034;-80
2023/04/22 04:32:44;;;;;;;7.45;4.70;;;;;;;;;;4961659;28;20030;-79
2023/04/22 04:35:11;;;;;;;7.07;4.70;;;;;;;;;;4960712;28;20033;-81
2023/04/22 04:37:39;;;;;;;7.57;4.72;;;;;;;;;;4967053;28;20015;-80
2023/04/22 04:40:06;;;;;;;10.55;5.25;;;;;;;;;;4984209;28;20030;-79
2023/04/22 04:42:32;;;;;;;9.32;5.00;;;;;;;;;;4987782;28;20101;-79
2023/04/22 04:44:58;;;;;;;6.72;4.00;;;;;;;;;;4970414;28;20106;-80
2023/04/22 04:47:23;;;;;;;8.13;4.85;;;;;;;;;;4992626;28;20018;-80
2023/04/22 04:49:52;;;;;;;8.75;4.45;;;;;;;;;;4964726;28;20569;-80
2023/04/22 04:52:17;;;;;;;6.18;3.97;;;;;;;;;;4969872;28;20027;-80
2023/04/22 04:54:42;;;;;;;7.07;3.92;;;;;;;;;;4981154;28;20033;-80
2023/04/22 04:57:09;;;;;;;7.38;4.65;;;;;;;;;;4982108;28;20058;-80
2023/04/22 04:59:34;;;;;;;6.55;4.05;;;;;;;;;;4968201;28;20062;-80
2023/04/22 05:02:00;;;;;;;6.72;4.45;;;;;;;;;;4979928;28;20405;-80
2023/04/22 05:04:25;;;;;;;10.20;4.20;;;;;;;;;;4980649;28;20023;-80
2023/04/22 05:06:51;;;;;;;8.00;4.22;;;;;;;;;;4984385;28;20046;-80
2023/04/22 05:09:16;;;;;;;8.80;4.47;;;;;;;;;;4977325;28;20035;-80
2023/04/22 05:11:41;;;;;;;7.82;4.50;;;;;;;;;;4991880;28;20023;-80
2023/04/22 05:14:07;;;;;;;6.60;4.18;;;;;;;;;;4979570;28;20519;-80
2023/04/22 05:16:32;;;;;;;7.65;5.07;;;;;;;;;;4991118;28;20096;-78
2023/04/22 05:18:57;;;;;;;6.30;4.30;;;;;;;;;;4994328;28;20037;-79
2023/04/22 05:21:23;;;;;;;10.73;4.43;;;;;;;;;;4976763;28;20042;-78
2023/04/22 05:23:48;;;;;;;7.47;4.57;;;;;;;;;;4988276;28;20026;-80
2023/04/22 05:26:13;;;;;;;8.85;4.38;;;;;;;;;;4980932;28;20095;-80
2023/04/22 05:28:39;;;;;;;8.75;4.90;;;;;;;;;;4959503;28;20023;-81
2023/04/22 05:31:05;;;;;;;6.55;4.38;;;;;;;;;;4958726;28;20039;-80
2023/04/22 05:33:31;;;;;;;7.95;4.63;;;;;;;;;;4968016;28;20035;-80
2023/04/22 05:35:56;;;;;;;7.72;4.15;;;;;;;;;;4979494;28;20030;-80
2023/04/22 05:38:21;;;;;;;7.07;4.22;;;;;;;;;;4983075;28;20073;-80
2023/04/22 05:40:47;;;;;;;5.65;4.25;;;;;;;;;;4980371;28;20038;-80
2023/04/22 05:43:12;;;;;;;6.97;3.92;;;;;;;;;;4987385;28;20030;-80
2023/04/22 05:45:37;;;;;;;7.65;3.88;;;;;;;;;;4970867;28;21895;-80
2023/04/22 05:48:03;;;;;;;6.72;4.03;;;;;;;;;;4983881;28;20082;-81
2023/04/22 05:50:28;;;;;;;5.90;4.07;;;;;;;;;;4959880;28;20122;-80
2023/04/22 05:52:54;;;;;;;7.90;3.83;;;;;;;;;;4961583;28;20062;-80
2023/04/22 05:55:19;;;;;;;6.20;4.32;;;;;;;;;;4979975;28;20031;-80
2023/04/22 05:57:44;;;;;;;7.45;4.53;;;;;;;;;;4958980;28;20059;-80
2023/04/22 06:00:10;;;;;;;5.88;4.40;;;;;;;;;;4968556;28;20034;-80
2023/04/22 06:02:35;;;;;;;13.43;4.28;;;;;;;;;;4957340;28;20050;-80
2023/04/22 06:05:01;;;;;;;10.02;5.18;;;;;;;;;;4955263;28;20027;-80
2023/04/22 06:07:26;;;;;;;8.68;5.05;;;;;;;;;;4976438;28;20031;-81
2023/04/22 06:09:51;;;;;;;7.45;4.78;;;;;;;;;;4977799;28;20105;-80
2023/04/22 06:12:17;;;;;;;8.77;4.95;;;;;;;;;;4971055;28;20085;-80
2023/04/22 06:14:43;;;;;;;10.02;5.32;;;;;;;;;;4970225;28;20340;-80
2023/04/22 06:17:08;;;;;;;10.65;4.85;;;;;;;;;;4974538;28;20482;-80
2023/04/22 06:19:34;;;;;;;11.48;5.60;;;;;;;;;;4948513;28;20046;-80
2023/04/22 06:21:59;;;;;;;8.38;5.32;;;;;;;;;;4976358;28;20029;-80
2023/04/22 06:24:24;;;;;;;7.05;5.43;;;;;;;;;;4975773;28;20039;-79
2023/04/22 06:26:50;;;;;;;13.32;5.10;;;;;;;;;;4976003;28;20046;-80
2023/04/22 06:29:15;;;;;;;7.72;5.25;;;;;;;;;;4965327;28;20090;-80
2023/04/22 06:31:40;;;;;;;9.30;5.18;;;;;;;;;;4977724;28;20031;-80
2023/04/22 06:34:06;;;;;;;12.88;4.78;;;;;;;;;;4949868;28;20082;-80
2023/04/22 06:36:36;;;;;;;10.00;4.75;;;;;;;;;;4981131;28;20117;-80
2023/04/22 06:39:03;;;;;;;10.88;4.35;;;;;;;;;;4981288;28;20030;-80
2023/04/22 06:41:28;;;;;;;7.18;4.68;;;;;;;;;;4982245;28;20030;-80
2023/04/22 06:43:53;;;;;;;11.20;5.07;;;;;;;;;;4962788;28;20110;-80
2023/04/22 06:46:18;;;;;;;7.95;4.75;;;;;;;;;;4972323;28;20022;-80
2023/04/22 06:48:44;;;;;;;9.80;4.28;;;;;;;;;;4983360;28;20022;-79
2023/04/22 06:51:09;;;;;;;7.63;4.78;;;;;;;;;;4956781;28;20038;-79
2023/04/22 06:53:35;;;;;;;10.10;5.10;;;;;;;;;;4979009;28;20495;-79
2023/04/22 06:56:00;;;;;;;7.47;4.97;;;;;;;;;;4981537;28;20117;-79
2023/04/22 06:58:25;;;;;;;7.45;4.00;;;;;;;;;;4985522;28;20053;-80
2023/04/22 07:00:51;;;;;;;7.60;4.68;;;;;;;;;;4981677;28;20344;-80
2023/04/22 07:03:16;;;;;;;6.15;4.50;;;;;;;;;;4980534;28;20402;-81
2023/04/22 07:05:41;;;;;;;8.02;4.75;;;;;;;;;;4965798;28;20037;-79
2023/04/22 07:08:07;;;;;;;7.47;4.50;;;;;;;;;;4980722;28;20061;-80
2023/04/22 07:10:32;;;;;;;8.43;4.50;;;;;;;;;;4975555;28;20035;-81
2023/04/22 07:12:58;;;;;;;6.82;4.60;;;;;;;;;;4984299;28;20031;-81
2023/04/22 07:15:23;;;;;;;6.72;4.05;;;;;;;;;;4980854;28;20035;-82
2023/04/22 07:17:48;;;;;;;11.77;4.50;;;;;;;;;;4977613;28;20057;-80
2023/04/22 07:20:14;;;;;;;10.85;4.20;;;;;;;;;;4982985;28;20038;-81
2023/04/22 07:22:39;;;;;;;7.57;4.32;;;;;;;;;;4981645;28;20031;-81
2023/04/22 07:25:06;;;;;;;7.10;4.07;;;;;;;;;;4982340;28;20050;-80
2023/04/22 07:27:33;;;;;;;6.82;3.63;;;;;;;;;;4979154;28;20034;-82
2023/04/22 07:29:58;;;;;;;6.65;4.07;;;;;;;;;;4960701;28;20034;-81
2023/04/22 07:32:24;;;;;;;6.05;4.32;;;;;;;;;;4975558;28;20027;-80
2023/04/22 07:34:49;;;;;;;7.53;3.45;;;;;;;;;;4958091;28;20030;-81
2023/04/22 07:37:14;;;;;;;5.30;3.33;;;;;;;;;;4979716;28;20108;-82
2023/04/22 07:39:40;;;;;;;7.15;3.75;;;;;;;;;;4968315;28;20507;-82
2023/04/22 07:42:06;;;;;;;5.70;3.50;;;;;;;;;;4992094;28;20019;-82
2023/04/22 07:44:31;;;;;;;6.18;3.53;;;;;;;;;;4976265;28;20126;-82
2023/04/22 07:46:56;;;;;;;6.00;3.05;;;;;;;;;;4979848;28;20055;-81
2023/04/22 07:49:22;;;;;;;5.97;3.25;;;;;;;;;;4962206;28;20035;-81
2023/04/22 07:51:48;;;;;;;4.63;3.33;;;;;;;;;;4978197;28;20467;-82
2023/04/22 07:54:13;;;;;;;4.43;3.10;;;;;;;;;;4968728;28;20034;-82
2023/04/22 07:56:38;;;;;;;6.93;3.00;;;;;;;;;;4964550;28;20092;-82
2023/04/22 07:59:04;;;;;;;4.63;3.47;;;;;;;;;;4958921;28;20410;-82
2023/04/22 08:01:30;;;;;;;4.65;2.97;;;;;;;;;;4960713;28;20109;-81
2023/04/22 08:03:55;;;;;;;4.50;2.95;;;;;;;;;;4965897;28;20110;-82
2023/04/22 08:06:21;;;;;;;6.80;3.10;;;;;;;;;;4978172;28;20034;-82
2023/04/22 08:08:46;;;;;;;5.10;3.17;;;;;;;;;;4975601;28;20022;-82
2023/04/22 08:11:11;;;;;;;5.80;3.08;;;;;;;;;;4981950;28;20022;-82
2023/04/22 08:13:37;;;;;;;4.60;2.90;;;;;;;;;;4977711;28;20046;-82
2023/04/22 08:16:02;;;;;;;5.35;3.13;;;;;;;;;;4975684;28;20058;-82
2023/04/22 08:18:36;;;;;;;4.68;3.00;;;;;;;;;;4958212;28;20035;-82
2023/04/22 08:21:43;;;;;;;4.95;3.03;;;;;;;;;;4973140;28;20035;-81
2023/04/22 08:24:18;;;;;;;3.45;2.55;;;;;;;;;;4974383;28;20041;-81
2023/04/22 08:26:43;;;;;;;5.72;2.50;;;;;;;;;;4978302;28;20018;-81
2023/04/22 08:29:09;;;;;;;4.43;3.05;;;;;;;;;;4960779;28;20023;-81
2023/04/22 08:31:34;;;;;;;5.47;2.83;;;;;;;;;;4971353;28;20034;-81
2023/04/22 08:34:00;;;;;;;5.07;3.25;;;;;;;;;;4948967;28;20490;-81
2023/04/22 08:36:26;;;;;;;4.55;2.92;;;;;;;;;;4985728;28;20030;-81
2023/04/22 08:38:52;;;;;;;5.45;2.55;;;;;;;;;;4975466;28;20038;-82
2023/04/22 08:41:18;;;;;;;3.40;2.78;;;;;;;;;;4964320;28;20037;-82
2023/04/22 08:43:44;;;;;;;5.95;2.65;;;;;;;;;;4982890;28;20085;-81
2023/04/22 08:46:10;;;;;;;4.93;2.70;;;;;;;;;;4970118;28;20118;-81
2023/04/22 08:48:36;;;;;;;5.72;2.90;;;;;;;;;;4979856;28;20049;-81
2023/04/22 08:51:01;;;;;;;4.53;2.78;;;;;;;;;;4979218;28;20228;-83
2023/04/22 08:53:27;;;;;;;6.93;2.92;;;;;;;;;;4966628;28;20026;-83
2023/04/22 08:55:55;;;;;;;5.57;3.30;;;;;;;;;;4975705;28;20025;-81
2023/04/22 08:58:21;;;;;;;6.18;2.90;;;;;;;;;;4948318;28;20022;-83
2023/04/22 09:00:47;;;;;;;4.50;3.10;;;;;;;;;;4956781;28;20046;-83
2023/04/22 09:03:14;;;;;;;5.75;3.25;;;;;;;;;;4966093;28;20030;-81
2023/04/22 09:05:40;;;;;;;5.22;3.00;;;;;;;;;;4957052;28;20054;-81
2023/04/22 09:08:06;;;;;;;4.88;3.03;;;;;;;;;;4957856;28;20490;-83
2023/04/22 09:10:36;;;;;;;3.35;2.65;;;;;;;;;;4962946;28;20040;-84
2023/04/22 09:13:03;;;;;;;4.78;2.67;;;;;;;;;;4983814;28;20026;-81
2023/04/22 09:15:28;;;;;;;3.90;2.33;;;;;;;;;;4959178;28;20027;-81
2023/04/22 09:17:54;;;;;;;3.97;2.60;;;;;;;;;;4960917;28;20023;-81
2023/04/22 09:20:25;;;;;;;4.28;2.80;;;;;;;;;;4976897;28;20419;-81
2023/04/22 09:22:51;;;;;;;5.10;2.37;;;;;;;;;;4966995;28;20019;-82
2023/04/22 09:25:24;;;;;;;5.70;2.30;;;;;;;;;;4984943;28;20030;-81
2023/04/22 09:27:57;;;;;;;9.23;2.38;;;;;;;;;;4957788;28;20095;-82
2023/04/22 09:30:30;;;;;;;4.70;2.28;;;;;;;;;;4965739;28;20043;-81
2023/04/22 09:33:03;;;;;;;2.45;2.00;;;;;;;;;;4957093;28;20059;-82
2023/04/22 09:35:30;;;;;;;10.75;2.25;;;;;;;;;;4964937;28;20026;-83
2023/04/22 09:37:57;;;;;;;3.83;2.97;;;;;;;;;;4960394;28;20026;-83
2023/04/22 09:40:23;;;;;;;3.17;1.92;;;;;;;;;;4980266;28;20026;-83
2023/04/22 09:42:51;;;;;;;2.75;2.10;;;;;;;;;;4972482;28;20031;-81
2023/04/22 09:45:32;;;;;;;3.17;1.90;;;;;;;;;;4949880;28;20086;-80
2023/04/22 09:48:09;;;;;;;4.65;2.15;;;;;;;;;;4975833;28;20033;-80
2023/04/22 09:50:37;;;;;;;3.70;2.08;;;;;;;;;;4963480;28;20026;-80
2023/04/22 09:53:08;;;;;;;3.13;2.05;;;;;;;;;;4968144;28;20031;-81
2023/04/22 09:55:39;;;;;;;3.67;2.00;;;;;;;;;;4967835;28;20026;-80
2023/04/22 09:58:19;;;;;;;3.13;1.77;;;;;;;;;;4964565;28;20035;-80
2023/04/22 10:00:48;;;;;;;2.63;1.52;;;;;;;;;;4953092;28;20015;-81
2023/04/22 10:03:14;;;;;;;1.58;1.35;;;;;;;;;;4964497;28;20041;-82
2023/04/22 10:05:40;;;;;;;2.53;1.77;;;;;;;;;;4982387;28;20030;-81
2023/04/22 10:08:07;;;;;;;2.65;1.88;;;;;;;;;;4976284;28;20027;-80
2023/04/22 10:10:33;;;;;;;2.10;1.48;;;;;;;;;;4977859;28;20042;-82
2023/04/22 10:12:59;;;;;;;3.05;1.70;;;;;;;;;;4967739;28;20033;-81
2023/04/22 10:15:30;;;;;;;1.98;1.75;;;;;;;;;;4955883;28;20031;-82
2023/04/22 10:17:56;;;;;;;5.15;1.50;;;;;;;;;;4969581;28;20023;-83
2023/04/22 10:20:22;;;;;;;3.10;1.60;;;;;;;;;;4975926;28;20030;-82
2023/04/22 10:22:51;;;;;;;2.60;1.50;;;;;;;;;;4970275;28;20039;-82
2023/04/22 10:25:22;;;;;;;3.78;2.25;;;;;;;;;;4966822;28;20483;-82
2023/04/22 10:28:00;;;;;;;3.13;1.90;;;;;;;;;;4974918;28;20086;-82
2023/04/22 10:30:28;;;;;;;2.92;1.60;;;;;;;;;;4980015;28;20031;-82
2023/04/22 10:32:53;;;;;;;2.38;1.85;;;;;;;;;;4942712;28;20030;-81
2023/04/22 10:35:26;;;;;;;2.38;1.80;;;;;;;;;;4974178;28;20081;-82
2023/04/22 10:37:52;;;;;;;3.17;1.73;;;;;;;;;;4959609;28;20081;-82
2023/04/22 10:40:18;;;;;;;4.30;1.40;;;;;;;;;;4976366;28;20026;-81
2023/04/22 10:42:52;;;;;;;2.22;1.50;;;;;;;;;;4969133;28;20031;-82
2023/04/22 10:45:18;;;;;;;4.63;1.83;;;;;;;;;;4981131;28;20027;-82
2023/04/22 10:47:44;;;;;;;1.50;1.40;;;;;;;;;;4959901;28;20030;-81
2023/04/22 10:50:23;;;;;;;3.15;1.30;;;;;;;;;;4983815;28;20031;-82
2023/04/22 10:52:50;;;;;;;1.40;1.30;;;;;;;;;;4982522;28;20030;-83
2023/04/22 10:55:16;;;;;;;3.25;1.55;;;;;;;;;;4984473;28;20106;-81
2023/04/22 10:57:43;;;;;;;1.88;1.50;;;;;;;;;;4981548;28;20275;-81
2023/04/22 11:00:22;;;;;;;2.10;1.55;;;;;;;;;;4989833;28;20045;-83
2023/04/22 11:03:09;;;;;;;1.85;1.25;;;;;;;;;;4967706;28;20034;-82
2023/04/22 11:05:34;;;;;;;1.75;1.33;;;;;;;;;;4990449;28;20027;-81
2023/04/22 11:08:07;;;;;;;2.90;1.00;;;;;;;;;;4958412;28;20400;-87
2023/04/22 11:10:40;;;;;;;2.35;1.30;;;;;;;;;;4981666;28;20063;-80
2023/04/22 11:13:07;;;;;;;2.45;1.10;;;;;;;;;;4982946;28;20035;-81
2023/04/22 11:15:35;;;;;;;1.88;1.10;;;;;;;;;;4959134;28;20090;-81
2023/04/22 11:18:00;;;;;;;1.20;1.10;;;;;;;;;;4960950;28;20086;-79
2023/04/22 11:20:27;;;;;;;1.60;1.35;;;;;;;;;;4976775;28;20062;-81
2023/04/22 11:22:54;;;;;;;2.58;1.20;;;;;;;;;;4983573;28;20066;-83
2023/04/22 11:25:20;;;;;;;3.53;1.42;;;;;;;;;;4970821;28;20411;-82
2023/04/22 11:27:46;;;;;;;2.15;1.00;;;;;;;;;;4981732;28;20037;-80
2023/04/22 11:30:13;;;;;;;1.23;1.13;;;;;;;;;;4979959;28;20026;-82
2023/04/22 11:32:41;;;;;;;3.92;1.35;;;;;;;;;;4962814;28;20089;-82
2023/04/22 11:35:32;;;;;;;1.50;1.20;;;;;;;;;;4980918;28;20023;-82
2023/04/22 11:38:00;;;;;;;2.60;1.65;;;;;;;;;;4981041;28;20031;-83
2023/04/22 11:40:26;;;;;;;2.60;1.33;;;;;;;;;;4979335;28;20034;-83
2023/04/22 11:42:53;;;;;;;2.50;1.40;;;;;;;;;;4957564;28;20042;-82
2023/04/22 11:45:19;;;;;;;3.22;1.20;;;;;;;;;;4979211;28;20518;-82
2023/04/22 11:47:45;;;;;;;1.50;1.33;;;;;;;;;;4961335;28;20030;-81
2023/04/22 11:50:12;;;;;;;1.85;1.75;;;;;;;;;;4985402;28;20027;-81
2023/04/22 11:52:50;;;;;;;2.92;1.38;;;;;;;;;;4961817;28;20039;-82
2023/04/22 11:55:31;;;;;;;2.38;1.30;;;;;;;;;;4978888;28;20031;-81
2023/04/22 11:58:21;;;;;;;2.00;1.25;;;;;;;;;;4979145;28;20015;-81
2023/04/22 12:00:48;;;;;;;1.20;0.85;;;;;;;;;;4950431;28;20039;-81
2023/04/22 12:03:19;;;;;;;5.25;1.38;;;;;;;;;;4955312;28;20035;-81
2023/04/22 12:05:56;;;;;;;5.45;1.23;;;;;;;;;;4981606;28;20034;-81
2023/04/22 12:08:23;;;;;;;2.03;1.02;;;;;;;;;;4959526;28;20026;-80
2023/04/22 12:10:55;;;;;;;2.47;1.05;;;;;;;;;;4990222;28;20027;-82
2023/04/22 12:13:24;;;;;;;2.17;1.10;;;;;;;;;;4984005;28;20561;-81
2023/04/22 12:15:54;;;;;;;2.15;1.38;;;;;;;;;;4991917;28;20027;-80
2023/04/22 12:18:29;;;;;;;2.30;1.15;;;;;;;;;;4970861;28;20022;-81
2023/04/22 12:21:07;;;;;;;3.17;1.30;;;;;;;;;;4997709;28;20030;-80
2023/04/22 12:23:52;;;;;;;1.15;1.05;;;;;;;;;;4973321;28;20418;-82
2023/04/22 12:26:19;;;;;;;3.90;1.65;;;;;;;;;;4962068;28;20031;-81
2023/04/22 12:28:45;;;;;;;3.40;1.42;;;;;;;;;;4955038;28;20394;-81
2023/04/22 12:31:12;;;;;;;2.45;1.40;;;;;;;;;;4960827;28;20483;-80
2023/04/22 12:33:38;;;;;;;2.55;1.50;;;;;;;;;;4987537;28;20132;-81
2023/04/22 12:36:04;;;;;;;4.38;1.15;;;;;;;;;;4973888;28;20724;-80
2023/04/22 12:38:30;;;;;;;2.88;1.30;;;;;;;;;;4968876;28;20026;-81
2023/04/22 12:40:57;;;;;;;1.25;1.05;;;;;;;;;;4976615;28;20059;-80
2023/04/22 12:43:23;;;;;;;3.40;1.38;;;;;;;;;;4984437;28;20054;-79
2023/04/22 12:45:48;;;;;;;2.90;1.35;;;;;;;;;;4979264;28;20033;-79
2023/04/22 12:48:14;;;;;;;1.92;1.17;;;;;;;;;;4969143;28;20031;-79
2023/04/22 12:50:40;;;;;;;5.90;1.60;;;;;;;;;;4963701;28;20090;-80
2023/04/22 12:53:05;;;;;;;1.90;1.20;;;;;;;;;;4960312;28;20057;-80
2023/04/22 12:55:30;;;;;;;2.00;1.33;;;;;;;;;;4977879;28;20023;-79
2023/04/22 12:57:56;;;;;;;3.10;1.35;;;;;;;;;;4971399;28;20026;-82
2023/04/22 13:00:23;;;;;;;2.45;1.30;;;;;;;;;;4978447;28;20040;-79
2023/04/22 13:02:49;;;;;;;5.03;1.27;;;;;;;;;;4979615;28;20093;-79
2023/04/22 13:05:16;;;;;;;6.28;1.75;;;;;;;;;;4977114;28;20038;-78
2023/04/22 13:07:42;;;;;;;1.80;1.00;;;;;;;;;;4979372;28;20027;-79
2023/04/22 13:10:12;;;;;;;1.40;1.30;;;;;;;;;;4979071;28;20074;-78
2023/04/22 13:12:38;;;;;;;2.03;1.48;;;;;;;;;;4979511;28;20019;-79
2023/04/22 13:15:05;;;;;;;2.75;1.85;;;;;;;;;;4978587;28;20023;-78
2023/04/22 13:17:30;;;;;;;5.43;1.65;;;;;;;;;;4975545;28;20050;-80
2023/04/22 13:19:56;;;;;;;3.55;2.20;;;;;;;;;;4976519;28;20034;-79
2023/04/22 13:22:21;;;;;;;4.68;2.75;;;;;;;;;;4967141;28;20399;-78
2023/04/22 13:24:47;;;;;;;3.47;2.60;;;;;;;;;;4976661;28;20062;-78
2023/04/22 13:27:12;;;;;;;6.60;2.85;;;;;;;;;;4963827;28;20137;-79
2023/04/22 13:29:38;;;;;;;3.72;2.10;;;;;;;;;;4955507;28;20487;-79
2023/04/22 13:32:04;;;;;;;6.93;1.90;;;;;;;;;;4976693;28;20061;-79
2023/04/22 13:34:29;;;;;;;2.38;1.85;;;;;;;;;;4983329;28;20049;-78
2023/04/22 13:36:58;;;;;;;2.47;1.30;;;;;;;;;;4970581;28;20102;-79
2023/04/22 13:39:24;;;;;;;1.90;1.40;;;;;;;;;;4966788;28;20081;-79
2023/04/22 13:41:49;;;;;;;2.58;1.17;;;;;;;;;;4977829;28;20121;-79
2023/04/22 13:44:15;;;;;;;2.58;1.45;;;;;;;;;;4961491;28;20026;-78
2023/04/22 13:46:41;;;;;;;1.50;1.40;;;;;;;;;;4977296;28;20041;-79
2023/04/22 13:49:07;;;;;;;2.97;1.38;;;;;;;;;;4977798;28;20034;-79
2023/04/22 13:51:33;;;;;;;3.47;1.60;;;;;;;;;;4977175;28;20034;-79
2023/04/22 13:53:59;;;;;;;2.60;1.70;;;;;;;;;;4967962;28;20086;-78
2023/04/22 13:56:25;;;;;;;1.52;1.20;;;;;;;;;;4974040;28;20029;-79
2023/04/22 13:58:51;;;;;;;6.53;1.67;;;;;;;;;;4996660;28;20030;-78
2023/04/22 14:01:20;;;;;;;2.50;1.52;;;;;;;;;;4972583;28;20106;-78
2023/04/22 14:03:48;;;;;;;2.13;1.52;;;;;;;;;;4993393;28;20570;-78
2023/04/22 14:06:13;;;;;;;2.20;1.30;;;;;;;;;;4953246;28;20098;-79
2023/04/22 14:08:39;;;;;;;3.35;1.38;;;;;;;;;;4959698;28;20104;-79
2023/04/22 14:11:06;;;;;;;4.38;1.92;;;;;;;;;;4963159;28;20117;-78
2023/04/22 14:13:31;;;;;;;6.20;1.40;;;;;;;;;;4979509;28;20420;-78
2023/04/22 14:15:56;;;;;;;2.30;1.50;;;;;;;;;;4966898;28;20506;-79
2023/04/22 14:18:22;;;;;;;2.13;1.20;;;;;;;;;;4970686;28;20065;-78
2023/04/22 14:20:50;;;;;;;6.50;1.98;;;;;;;;;;4963809;28;20014;-78
2023/04/22 14:23:16;;;;;;;1.27;1.17;;;;;;;;;;4996006;28;20047;-78
2023/04/22 14:25:44;;;;;;;4.38;1.48;;;;;;;;;;4989894;28;20034;-78
2023/04/22 14:28:10;;;;;;;4.38;1.52;;;;;;;;;;4975272;28;20094;-80
2023/04/22 14:30:36;;;;;;;3.55;1.42;;;;;;;;;;4958238;28;20027;-79
2023/04/22 14:33:05;;;;;;;4.10;1.40;;;;;;;;;;4978485;28;20026;-79
2023/04/22 14:35:31;;;;;;;3.05;1.13;;;;;;;;;;4963683;28;20030;-79
2023/04/22 14:37:57;;;;;;;1.88;1.15;;;;;;;;;;4976735;28;20070;-79
2023/04/22 14:40:26;;;;;;;1.60;1.50;;;;;;;;;;4953611;28;20038;-78